sensor_id;sensor_type;location;lat;lon;timestamp;pressure;altitude;pressure_sealevel;temperature;humidity
59588;BME280;45412;54.472;18.464;2022-12-07T00:02:25;99074.66;;;1.38;100.00
59588;BME280;45412;54.472;18.464;2022-12-07T00:05:14;99072.75;;;1.40;100.00
59588;BME280;45412;54.472;18.464;2022-12-07T00:08:02;99063.55;;;1.39;100.00
59588;BME280;45412;54.472;18.464;2022-12-07T00:10:50;99063.70;;;1.40;100.00
59588;BME280;45412;54.472;18.464;2022-12-07T00:13:39;99058.74;;;1.41;100.00
59588;BME280;45412;54.472;18.464;2022-12-07T00:16:32;99059.11;;;1.41;100.00
59588;BME280;45412;54.472;18.464;2022-12-07T00:19:19;99063.11;;;1.41;100.00
59588;BME280;45412;54.472;18.464;2022-12-07T00:22:07;99058.70;;;1.42;100.00
59588;BME280;45412;54.472;18.464;2022-12-07T00:24:55;99057.35;;;1.41;100.00
59588;BME280;45412;54.472;18.464;2022-12-07T00:27:43;99059.05;;;1.42;100.00
59588;BME280;45412;54.472;18.464;2022-12-07T00:30:30;99059.14;;;1.40;100.00
59588;BME280;45412;54.472;18.464;2022-12-07T00:33:18;99058.56;;;1.38;100.00
59588;BME280;45412;54.472;18.464;2022-12-07T00:36:10;99057.71;;;1.41;100.00
59588;BME280;45412;54.472;18.464;2022-12-07T00:39:00;99057.06;;;1.40;100.00
59588;BME280;45412;54.472;18.464;2022-12-07T00:41:48;99055.04;;;1.42;100.00
59588;BME280;45412;54.472;18.464;2022-12-07T00:44:36;99056.98;;;1.41;100.00
59588;BME280;45412;54.472;18.464;2022-12-07T00:47:23;99053.84;;;1.41;100.00
59588;BME280;45412;54.472;18.464;2022-12-07T00:50:11;99055.46;;;1.43;100.00
59588;BME280;45412;54.472;18.464;2022-12-07T00:52:59;99049.39;;;1.43;100.00
59588;BME280;45412;54.472;18.464;2022-12-07T00:55:47;99049.25;;;1.45;100.00
59588;BME280;45412;54.472;18.464;2022-12-07T00:58:35;99044.34;;;1.45;100.00
59588;BME280;45412;54.472;18.464;2022-12-07T01:01:26;99041.33;;;1.46;100.00
59588;BME280;45412;54.472;18.464;2022-12-07T01:04:14;99039.98;;;1.48;100.00
59588;BME280;45412;54.472;18.464;2022-12-07T01:07:02;99029.86;;;1.51;100.00
59588;BME280;45412;54.472;18.464;2022-12-07T01:09:50;99029.97;;;1.52;100.00
59588;BME280;45412;54.472;18.464;2022-12-07T01:12:38;99028.61;;;1.48;100.00
59588;BME280;45412;54.472;18.464;2022-12-07T01:15:26;99032.02;;;1.47;100.00
59588;BME280;45412;54.472;18.464;2022-12-07T01:18:14;99026.41;;;1.44;100.00
59588;BME280;45412;54.472;18.464;2022-12-07T01:21:06;99025.05;;;1.43;100.00
59588;BME280;45412;54.472;18.464;2022-12-07T01:23:54;99021.77;;;1.46;100.00
59588;BME280;45412;54.472;18.464;2022-12-07T01:26:42;99019.08;;;1.47;100.00
59588;BME280;45412;54.472;18.464;2022-12-07T01:29:30;99015.61;;;1.49;100.00
59588;BME280;45412;54.472;18.464;2022-12-07T01:32:17;99013.02;;;1.52;100.00
59588;BME280;45412;54.472;18.464;2022-12-07T01:35:05;99009.09;;;1.53;100.00
59588;BME280;45412;54.472;18.464;2022-12-07T01:37:53;99012.16;;;1.55;100.00
59588;BME280;45412;54.472;18.464;2022-12-07T01:40:41;99008.66;;;1.55;100.00
59588;BME280;45412;54.472;18.464;2022-12-07T01:43:33;99004.52;;;1.54;100.00
59588;BME280;45412;54.472;18.464;2022-12-07T01:46:21;99004.77;;;1.56;100.00
59588;BME280;45412;54.472;18.464;2022-12-07T01:52:31;99001.80;;;1.56;100.00
59588;BME280;45412;54.472;18.464;2022-12-07T01:55:21;99002.09;;;1.54;100.00
59588;BME280;45412;54.472;18.464;2022-12-07T01:58:10;98998.58;;;1.54;100.00
59588;BME280;45412;54.472;18.464;2022-12-07T02:00:59;98998.92;;;1.54;100.00
59588;BME280;45412;54.472;18.464;2022-12-07T02:03:47;98997.04;;;1.56;100.00
59588;BME280;45412;54.472;18.464;2022-12-07T02:06:36;98992.42;;;1.57;100.00
59588;BME280;45412;54.472;18.464;2022-12-07T02:09:24;98989.42;;;1.55;100.00
59588;BME280;45412;54.472;18.464;2022-12-07T02:12:12;98982.69;;;1.54;100.00
59588;BME280;45412;54.472;18.464;2022-12-07T02:15:00;98982.44;;;1.55;100.00
59588;BME280;45412;54.472;18.464;2022-12-07T02:27:21;98970.20;;;1.58;100.00
59588;BME280;45412;54.472;18.464;2022-12-07T02:30:19;98960.46;;;1.57;100.00
59588;BME280;45412;54.472;18.464;2022-12-07T02:33:17;98954.14;;;1.58;100.00
59588;BME280;45412;54.472;18.464;2022-12-07T02:36:17;98950.31;;;1.57;100.00
59588;BME280;45412;54.472;18.464;2022-12-07T02:40:01;98947.39;;;1.56;100.00
59588;BME280;45412;54.472;18.464;2022-12-07T02:43:12;98946.05;;;1.55;100.00
59588;BME280;45412;54.472;18.464;2022-12-07T02:46:09;98943.30;;;1.54;100.00
59588;BME280;45412;54.472;18.464;2022-12-07T02:49:01;98942.83;;;1.53;100.00
59588;BME280;45412;54.472;18.464;2022-12-07T02:51:50;98940.92;;;1.53;100.00
59588;BME280;45412;54.472;18.464;2022-12-07T02:54:39;98940.81;;;1.52;100.00
59588;BME280;45412;54.472;18.464;2022-12-07T02:58:17;98944.84;;;1.52;100.00
59588;BME280;45412;54.472;18.464;2022-12-07T03:14:13;98924.80;;;1.54;100.00
59588;BME280;45412;54.472;18.464;2022-12-07T03:17:14;98924.61;;;1.54;100.00
59588;BME280;45412;54.472;18.464;2022-12-07T03:20:06;98921.39;;;1.55;100.00
59588;BME280;45412;54.472;18.464;2022-12-07T03:22:56;98925.02;;;1.56;100.00
59588;BME280;45412;54.472;18.464;2022-12-07T03:25:50;98923.70;;;1.58;100.00
59588;BME280;45412;54.472;18.464;2022-12-07T03:28:55;98917.86;;;1.56;100.00
59588;BME280;45412;54.472;18.464;2022-12-07T03:31:49;98918.27;;;1.55;100.00
59588;BME280;45412;54.472;18.464;2022-12-07T03:34:53;98917.16;;;1.56;100.00
59588;BME280;45412;54.472;18.464;2022-12-07T03:37:51;98912.43;;;1.59;100.00
59588;BME280;45412;54.472;18.464;2022-12-07T03:40:52;98910.47;;;1.63;100.00
59588;BME280;45412;54.472;18.464;2022-12-07T03:43:42;98902.33;;;1.64;100.00
59588;BME280;45412;54.472;18.464;2022-12-07T03:46:52;98899.61;;;1.66;100.00
59588;BME280;45412;54.472;18.464;2022-12-07T03:50:00;98890.92;;;1.68;100.00
59588;BME280;45412;54.472;18.464;2022-12-07T03:52:59;98891.77;;;1.72;100.00
59588;BME280;45412;54.472;18.464;2022-12-07T03:55:51;98890.63;;;1.76;100.00
59588;BME280;45412;54.472;18.464;2022-12-07T03:58:40;98885.98;;;1.78;100.00
59588;BME280;45412;54.472;18.464;2022-12-07T04:01:28;98879.77;;;1.79;100.00
59588;BME280;45412;54.472;18.464;2022-12-07T04:04:17;98873.92;;;1.80;100.00
59588;BME280;45412;54.472;18.464;2022-12-07T04:07:05;98872.43;;;1.82;100.00
59588;BME280;45412;54.472;18.464;2022-12-07T04:09:53;98870.84;;;1.82;100.00
59588;BME280;45412;54.472;18.464;2022-12-07T04:12:42;98868.81;;;1.84;100.00
59588;BME280;45412;54.472;18.464;2022-12-07T04:15:29;98867.27;;;1.86;100.00
59588;BME280;45412;54.472;18.464;2022-12-07T04:18:17;98865.86;;;1.90;100.00
59588;BME280;45412;54.472;18.464;2022-12-07T04:21:05;98858.40;;;1.91;100.00
59588;BME280;45412;54.472;18.464;2022-12-07T04:23:53;98849.96;;;1.92;100.00
59588;BME280;45412;54.472;18.464;2022-12-07T04:26:42;98849.13;;;1.94;100.00
59588;BME280;45412;54.472;18.464;2022-12-07T04:29:30;98850.65;;;1.98;100.00
59588;BME280;45412;54.472;18.464;2022-12-07T04:32:18;98845.86;;;1.99;100.00
59588;BME280;45412;54.472;18.464;2022-12-07T04:35:07;98842.65;;;2.00;100.00
59588;BME280;45412;54.472;18.464;2022-12-07T04:37:55;98841.55;;;1.98;100.00
59588;BME280;45412;54.472;18.464;2022-12-07T04:40:42;98847.33;;;1.95;100.00
59588;BME280;45412;54.472;18.464;2022-12-07T04:43:30;98847.34;;;1.92;100.00
59588;BME280;45412;54.472;18.464;2022-12-07T04:46:18;98841.13;;;1.90;100.00
59588;BME280;45412;54.472;18.464;2022-12-07T04:49:06;98835.13;;;1.88;100.00
59588;BME280;45412;54.472;18.464;2022-12-07T04:51:54;98833.11;;;1.93;100.00
59588;BME280;45412;54.472;18.464;2022-12-07T04:54:41;98831.73;;;1.95;100.00
59588;BME280;45412;54.472;18.464;2022-12-07T04:57:29;98832.13;;;1.97;100.00
59588;BME280;45412;54.472;18.464;2022-12-07T05:00:17;98825.27;;;1.98;100.00
59588;BME280;45412;54.472;18.464;2022-12-07T05:03:05;98821.33;;;1.99;100.00
59588;BME280;45412;54.472;18.464;2022-12-07T05:05:53;98819.48;;;2.01;100.00
59588;BME280;45412;54.472;18.464;2022-12-07T05:08:41;98817.16;;;2.02;100.00
59588;BME280;45412;54.472;18.464;2022-12-07T05:11:30;98817.06;;;2.03;100.00
59588;BME280;45412;54.472;18.464;2022-12-07T05:14:26;98814.84;;;2.02;100.00
59588;BME280;45412;54.472;18.464;2022-12-07T05:17:14;98810.52;;;2.01;100.00
59588;BME280;45412;54.472;18.464;2022-12-07T05:20:02;98806.85;;;2.01;100.00
59588;BME280;45412;54.472;18.464;2022-12-07T05:22:50;98802.01;;;2.00;100.00
59588;BME280;45412;54.472;18.464;2022-12-07T05:25:39;98797.52;;;1.99;100.00
59588;BME280;45412;54.472;18.464;2022-12-07T05:28:26;98797.82;;;1.98;100.00
59588;BME280;45412;54.472;18.464;2022-12-07T05:31:14;98798.92;;;1.97;100.00
59588;BME280;45412;54.472;18.464;2022-12-07T05:34:02;98797.20;;;1.96;100.00
59588;BME280;45412;54.472;18.464;2022-12-07T05:36:50;98798.51;;;1.95;100.00
59588;BME280;45412;54.472;18.464;2022-12-07T05:39:37;98793.71;;;1.93;100.00
59588;BME280;45412;54.472;18.464;2022-12-07T05:42:28;98789.63;;;1.92;100.00
59588;BME280;45412;54.472;18.464;2022-12-07T05:45:16;98788.75;;;1.91;100.00
59588;BME280;45412;54.472;18.464;2022-12-07T05:48:04;98793.36;;;1.91;100.00
59588;BME280;45412;54.472;18.464;2022-12-07T05:50:52;98797.97;;;1.90;100.00
59588;BME280;45412;54.472;18.464;2022-12-07T05:53:40;98800.95;;;1.90;100.00
59588;BME280;45412;54.472;18.464;2022-12-07T05:56:28;98795.28;;;1.88;100.00
59588;BME280;45412;54.472;18.464;2022-12-07T05:59:16;98791.77;;;1.88;100.00
59588;BME280;45412;54.472;18.464;2022-12-07T06:02:13;98790.93;;;1.87;100.00
59588;BME280;45412;54.472;18.464;2022-12-07T06:05:02;98784.10;;;1.87;100.00
59588;BME280;45412;54.472;18.464;2022-12-07T06:07:50;98785.98;;;1.85;100.00
59588;BME280;45412;54.472;18.464;2022-12-07T06:10:38;98780.59;;;1.82;100.00
59588;BME280;45412;54.472;18.464;2022-12-07T06:13:25;98780.45;;;1.79;100.00
59588;BME280;45412;54.472;18.464;2022-12-07T06:16:13;98776.08;;;1.76;100.00
59588;BME280;45412;54.472;18.464;2022-12-07T06:19:01;98777.68;;;1.73;100.00
59588;BME280;45412;54.472;18.464;2022-12-07T06:21:49;98775.96;;;1.69;100.00
59588;BME280;45412;54.472;18.464;2022-12-07T06:24:38;98776.50;;;1.66;100.00
59588;BME280;45412;54.472;18.464;2022-12-07T06:27:26;98776.20;;;1.62;100.00
59588;BME280;45412;54.472;18.464;2022-12-07T06:30:13;98773.08;;;1.59;100.00
59588;BME280;45412;54.472;18.464;2022-12-07T06:33:01;98770.36;;;1.55;100.00
59588;BME280;45412;54.472;18.464;2022-12-07T06:35:49;98770.52;;;1.52;100.00
59588;BME280;45412;54.472;18.464;2022-12-07T06:38:37;98770.85;;;1.50;99.98
59588;BME280;45412;54.472;18.464;2022-12-07T06:41:25;98766.04;;;1.48;100.00
59588;BME280;45412;54.472;18.464;2022-12-07T06:44:13;98761.14;;;1.48;100.00
59588;BME280;45412;54.472;18.464;2022-12-07T06:47:01;98760.58;;;1.46;100.00
59588;BME280;45412;54.472;18.464;2022-12-07T06:50:09;98763.97;;;1.45;100.00
59588;BME280;45412;54.472;18.464;2022-12-07T06:52:57;98763.60;;;1.43;100.00
59588;BME280;45412;54.472;18.464;2022-12-07T06:55:45;98768.55;;;1.41;100.00
59588;BME280;45412;54.472;18.464;2022-12-07T06:58:33;98763.34;;;1.38;100.00
59588;BME280;45412;54.472;18.464;2022-12-07T07:01:21;98759.64;;;1.35;100.00
59588;BME280;45412;54.472;18.464;2022-12-07T07:04:09;98755.55;;;1.34;100.00
59588;BME280;45412;54.472;18.464;2022-12-07T07:06:56;98752.73;;;1.34;100.00
59588;BME280;45412;54.472;18.464;2022-12-07T07:09:46;98756.44;;;1.36;100.00
59588;BME280;45412;54.472;18.464;2022-12-07T07:12:34;98752.05;;;1.37;100.00
59588;BME280;45412;54.472;18.464;2022-12-07T07:15:22;98749.67;;;1.39;100.00
59588;BME280;45412;54.472;18.464;2022-12-07T07:18:10;98754.34;;;1.40;100.00
59588;BME280;45412;54.472;18.464;2022-12-07T07:20:58;98757.44;;;1.40;100.00
59588;BME280;45412;54.472;18.464;2022-12-07T07:23:46;98754.34;;;1.42;100.00
59588;BME280;45412;54.472;18.464;2022-12-07T07:26:33;98754.84;;;1.43;100.00
59588;BME280;45412;54.472;18.464;2022-12-07T07:29:21;98752.45;;;1.45;100.00
59588;BME280;45412;54.472;18.464;2022-12-07T07:32:09;98753.48;;;1.45;100.00
59588;BME280;45412;54.472;18.464;2022-12-07T07:34:57;98752.25;;;1.42;100.00
59588;BME280;45412;54.472;18.464;2022-12-07T07:37:44;98753.09;;;1.43;100.00
59588;BME280;45412;54.472;18.464;2022-12-07T07:40:33;98753.18;;;1.44;100.00
59588;BME280;45412;54.472;18.464;2022-12-07T07:43:20;98753.89;;;1.44;99.95
59588;BME280;45412;54.472;18.464;2022-12-07T07:46:08;98753.52;;;1.44;99.89
59588;BME280;45412;54.472;18.464;2022-12-07T07:48:56;98755.91;;;1.45;99.70
59588;BME280;45412;54.472;18.464;2022-12-07T07:51:44;98751.78;;;1.47;99.60
59588;BME280;45412;54.472;18.464;2022-12-07T07:54:32;98751.90;;;1.54;99.68
59588;BME280;45412;54.472;18.464;2022-12-07T07:57:20;98749.06;;;1.57;99.32
59588;BME280;45412;54.472;18.464;2022-12-07T08:00:13;98750.27;;;1.63;99.07
59588;BME280;45412;54.472;18.464;2022-12-07T08:03:04;98749.04;;;1.72;98.86
59588;BME280;45412;54.472;18.464;2022-12-07T08:05:52;98757.43;;;1.78;98.04
59588;BME280;45412;54.472;18.464;2022-12-07T08:08:40;98757.55;;;1.84;98.21
59588;BME280;45412;54.472;18.464;2022-12-07T08:11:29;98754.05;;;1.95;97.72
59588;BME280;45412;54.472;18.464;2022-12-07T08:14:16;98753.20;;;2.03;97.31
59588;BME280;45412;54.472;18.464;2022-12-07T08:17:04;98751.74;;;2.10;96.76
59588;BME280;45412;54.472;18.464;2022-12-07T08:19:52;98745.30;;;2.09;96.36
59588;BME280;45412;54.472;18.464;2022-12-07T08:22:39;98749.38;;;2.06;96.50
59588;BME280;45412;54.472;18.464;2022-12-07T08:25:28;98747.59;;;2.00;96.01
59588;BME280;45412;54.472;18.464;2022-12-07T08:28:16;98746.38;;;1.98;96.31
59588;BME280;45412;54.472;18.464;2022-12-07T08:31:13;98747.21;;;1.96;96.44
59588;BME280;45412;54.472;18.464;2022-12-07T08:34:01;98742.45;;;1.96;96.72
59588;BME280;45412;54.472;18.464;2022-12-07T08:36:49;98741.12;;;1.95;96.65
59588;BME280;45412;54.472;18.464;2022-12-07T08:39:36;98741.59;;;1.93;96.27
59588;BME280;45412;54.472;18.464;2022-12-07T08:42:24;98740.52;;;1.96;96.22
59588;BME280;45412;54.472;18.464;2022-12-07T08:45:18;98737.19;;;1.94;95.78
59588;BME280;45412;54.472;18.464;2022-12-07T08:48:14;98737.81;;;1.92;95.54
59588;BME280;45412;54.472;18.464;2022-12-07T08:51:04;98735.86;;;1.93;95.55
59588;BME280;45412;54.472;18.464;2022-12-07T08:53:53;98733.17;;;1.94;95.74
59588;BME280;45412;54.472;18.464;2022-12-07T08:56:41;98731.70;;;1.95;95.69
59588;BME280;45412;54.472;18.464;2022-12-07T08:59:30;98731.30;;;1.95;95.53
59588;BME280;45412;54.472;18.464;2022-12-07T09:02:18;98724.52;;;1.92;94.97
59588;BME280;45412;54.472;18.464;2022-12-07T09:05:06;98720.98;;;1.90;95.14
59588;BME280;45412;54.472;18.464;2022-12-07T09:08:03;98722.85;;;1.91;95.18
59588;BME280;45412;54.472;18.464;2022-12-07T09:10:50;98722.06;;;1.92;94.84
59588;BME280;45412;54.472;18.464;2022-12-07T09:13:38;98719.44;;;1.86;94.56
59588;BME280;45412;54.472;18.464;2022-12-07T09:16:26;98718.39;;;1.86;94.94
59588;BME280;45412;54.472;18.464;2022-12-07T09:19:14;98710.66;;;1.87;94.89
59588;BME280;45412;54.472;18.464;2022-12-07T09:22:03;98711.52;;;1.90;94.55
59588;BME280;45412;54.472;18.464;2022-12-07T09:24:52;98711.27;;;1.92;94.35
59588;BME280;45412;54.472;18.464;2022-12-07T09:27:41;98708.86;;;1.91;94.21
59588;BME280;45412;54.472;18.464;2022-12-07T09:30:29;98706.01;;;1.89;93.99
59588;BME280;45412;54.472;18.464;2022-12-07T09:33:16;98703.98;;;1.87;93.86
59588;BME280;45412;54.472;18.464;2022-12-07T09:36:04;98700.91;;;1.89;94.03
59588;BME280;45412;54.472;18.464;2022-12-07T09:38:52;98700.40;;;1.89;93.39
59588;BME280;45412;54.472;18.464;2022-12-07T09:41:42;98696.67;;;1.87;93.33
59588;BME280;45412;54.472;18.464;2022-12-07T09:44:35;98694.09;;;1.84;93.19
59588;BME280;45412;54.472;18.464;2022-12-07T09:47:23;98690.14;;;1.83;93.70
59588;BME280;45412;54.472;18.464;2022-12-07T09:50:26;98690.73;;;1.84;93.99
59588;BME280;45412;54.472;18.464;2022-12-07T09:53:24;98688.73;;;1.88;93.96
59588;BME280;45412;54.472;18.464;2022-12-07T09:56:14;98690.81;;;1.91;93.79
59588;BME280;45412;54.472;18.464;2022-12-07T09:59:03;98688.77;;;1.90;93.49
59588;BME280;45412;54.472;18.464;2022-12-07T10:01:51;98686.88;;;1.87;93.19
59588;BME280;45412;54.472;18.464;2022-12-07T10:04:39;98688.03;;;1.85;93.19
59588;BME280;45412;54.472;18.464;2022-12-07T10:07:28;98690.46;;;1.85;93.60
59588;BME280;45412;54.472;18.464;2022-12-07T10:10:27;98683.90;;;1.84;93.48
59588;BME280;45412;54.472;18.464;2022-12-07T10:13:34;98685.34;;;1.81;93.07
59588;BME280;45412;54.472;18.464;2022-12-07T10:22:13;98679.63;;;1.85;93.17
59588;BME280;45412;54.472;18.464;2022-12-07T10:25:18;98680.65;;;1.86;93.26
59588;BME280;45412;54.472;18.464;2022-12-07T10:31:02;98677.45;;;1.86;92.75
59588;BME280;45412;54.472;18.464;2022-12-07T10:33:58;98672.63;;;1.88;92.19
59588;BME280;45412;54.472;18.464;2022-12-07T10:36:46;98669.41;;;1.89;92.11
59588;BME280;45412;54.472;18.464;2022-12-07T10:42:32;98665.47;;;1.88;91.92
59588;BME280;45412;54.472;18.464;2022-12-07T10:45:20;98668.33;;;1.90;91.89
59588;BME280;45412;54.472;18.464;2022-12-07T10:48:30;98666.88;;;1.88;91.91
59588;BME280;45412;54.472;18.464;2022-12-07T10:55:54;98656.77;;;1.79;91.19
59588;BME280;45412;54.472;18.464;2022-12-07T11:04:21;98647.25;;;1.64;91.63
59588;BME280;45412;54.472;18.464;2022-12-07T11:07:43;98650.39;;;1.64;91.49
59588;BME280;45412;54.472;18.464;2022-12-07T11:14:31;98641.30;;;1.66;91.95
59588;BME280;45412;54.472;18.464;2022-12-07T11:23:56;98629.30;;;1.71;91.41
59588;BME280;45412;54.472;18.464;2022-12-07T11:33:07;98615.16;;;1.93;89.48
59588;BME280;45412;54.472;18.464;2022-12-07T11:39:04;98600.64;;;2.03;88.30
59588;BME280;45412;54.472;18.464;2022-12-07T11:42:22;98600.83;;;2.06;88.12
59588;BME280;45412;54.472;18.464;2022-12-07T11:45:27;98601.41;;;1.99;87.87
59588;BME280;45412;54.472;18.464;2022-12-07T11:51:51;98596.75;;;1.93;87.85
59588;BME280;45412;54.472;18.464;2022-12-07T11:54:43;98594.40;;;1.89;87.82
59588;BME280;45412;54.472;18.464;2022-12-07T11:57:42;98589.85;;;1.83;87.87
59588;BME280;45412;54.472;18.464;2022-12-07T12:00:32;98592.77;;;1.79;88.38
59588;BME280;45412;54.472;18.464;2022-12-07T12:03:30;98591.90;;;1.74;88.61
59588;BME280;45412;54.472;18.464;2022-12-07T12:06:22;98590.77;;;1.66;88.55
59588;BME280;45412;54.472;18.464;2022-12-07T12:09:27;98595.80;;;1.62;88.97
59588;BME280;45412;54.472;18.464;2022-12-07T12:12:47;98593.10;;;1.58;89.10
59588;BME280;45412;54.472;18.464;2022-12-07T12:16:27;98587.70;;;1.52;88.81
59588;BME280;45412;54.472;18.464;2022-12-07T12:23:05;98575.66;;;1.43;89.26
59588;BME280;45412;54.472;18.464;2022-12-07T12:25:57;98573.35;;;1.41;89.76
59588;BME280;45412;54.472;18.464;2022-12-07T12:28:59;98573.80;;;1.42;89.94
59588;BME280;45412;54.472;18.464;2022-12-07T12:32:06;98565.96;;;1.42;89.83
59588;BME280;45412;54.472;18.464;2022-12-07T12:38:33;98559.94;;;1.38;89.65
59588;BME280;45412;54.472;18.464;2022-12-07T12:47:41;98552.42;;;1.37;90.12
59588;BME280;45412;54.472;18.464;2022-12-07T12:50:36;98556.13;;;1.40;90.07
59588;BME280;45412;54.472;18.464;2022-12-07T12:53:26;98551.89;;;1.40;89.97
59588;BME280;45412;54.472;18.464;2022-12-07T12:56:35;98549.36;;;1.42;89.77
59588;BME280;45412;54.472;18.464;2022-12-07T13:03:22;98544.33;;;1.39;89.80
59588;BME280;45412;54.472;18.464;2022-12-07T13:06:41;98538.14;;;1.37;89.90
59588;BME280;45412;54.472;18.464;2022-12-07T13:09:33;98534.14;;;1.33;89.87
59588;BME280;45412;54.472;18.464;2022-12-07T13:12:21;98534.27;;;1.29;89.81
59588;BME280;45412;54.472;18.464;2022-12-07T13:15:37;98528.14;;;1.26;90.09
59588;BME280;45412;54.472;18.464;2022-12-07T13:18:38;98534.73;;;1.27;90.30
59588;BME280;45412;54.472;18.464;2022-12-07T13:24:14;98529.48;;;1.22;90.14
59588;BME280;45412;54.472;18.464;2022-12-07T13:27:02;98531.33;;;1.21;90.32
59588;BME280;45412;54.472;18.464;2022-12-07T13:29:50;98536.42;;;1.20;90.82
59588;BME280;45412;54.472;18.464;2022-12-07T13:32:38;98531.27;;;1.15;90.30
59588;BME280;45412;54.472;18.464;2022-12-07T13:38:31;98527.10;;;1.15;90.68
59588;BME280;45412;54.472;18.464;2022-12-07T13:41:23;98525.69;;;1.15;90.19
59588;BME280;45412;54.472;18.464;2022-12-07T13:44:14;98522.48;;;1.16;90.38
59588;BME280;45412;54.472;18.464;2022-12-07T13:47:31;98524.42;;;1.16;90.48
59588;BME280;45412;54.472;18.464;2022-12-07T13:53:13;98518.87;;;1.13;90.32
59588;BME280;45412;54.472;18.464;2022-12-07T13:56:02;98519.51;;;1.11;90.52
59588;BME280;45412;54.472;18.464;2022-12-07T13:58:50;98516.02;;;1.11;90.92
59588;BME280;45412;54.472;18.464;2022-12-07T14:01:38;98512.22;;;1.10;90.72
59588;BME280;45412;54.472;18.464;2022-12-07T14:04:34;98512.88;;;1.05;90.41
59588;BME280;45412;54.472;18.464;2022-12-07T14:07:28;98507.15;;;0.99;90.45
59588;BME280;45412;54.472;18.464;2022-12-07T14:10:35;98506.97;;;0.94;90.35
59588;BME280;45412;54.472;18.464;2022-12-07T14:13:37;98501.25;;;0.90;90.54
59588;BME280;45412;54.472;18.464;2022-12-07T14:16:36;98498.80;;;0.87;90.79
59588;BME280;45412;54.472;18.464;2022-12-07T14:19:46;98491.45;;;0.84;90.96
59588;BME280;45412;54.472;18.464;2022-12-07T14:22:38;98495.13;;;0.82;91.18
59588;BME280;45412;54.472;18.464;2022-12-07T14:25:27;98494.62;;;0.79;91.58
59588;BME280;45412;54.472;18.464;2022-12-07T14:28:29;98494.95;;;0.76;91.84
59588;BME280;45412;54.472;18.464;2022-12-07T14:31:23;98489.11;;;0.75;91.92
59588;BME280;45412;54.472;18.464;2022-12-07T14:34:20;98492.24;;;0.75;92.25
59588;BME280;45412;54.472;18.464;2022-12-07T14:37:09;98487.77;;;0.74;92.24
59588;BME280;45412;54.472;18.464;2022-12-07T14:39:58;98490.62;;;0.73;92.46
59588;BME280;45412;54.472;18.464;2022-12-07T14:42:50;98486.89;;;0.74;92.70
59588;BME280;45412;54.472;18.464;2022-12-07T14:45:39;98494.30;;;0.73;92.42
59588;BME280;45412;54.472;18.464;2022-12-07T14:48:29;98485.31;;;0.71;92.55
59588;BME280;45412;54.472;18.464;2022-12-07T14:51:39;98476.23;;;0.69;92.63
59588;BME280;45412;54.472;18.464;2022-12-07T14:54:48;98481.33;;;0.65;92.29
59588;BME280;45412;54.472;18.464;2022-12-07T14:57:36;98482.73;;;0.62;92.09
59588;BME280;45412;54.472;18.464;2022-12-07T15:00:28;98485.05;;;0.59;91.99
59588;BME280;45412;54.472;18.464;2022-12-07T15:03:16;98481.54;;;0.53;92.07
59588;BME280;45412;54.472;18.464;2022-12-07T15:06:05;98476.07;;;0.48;92.31
59588;BME280;45412;54.472;18.464;2022-12-07T15:08:56;98479.30;;;0.44;92.30
59588;BME280;45412;54.472;18.464;2022-12-07T15:11:44;98475.28;;;0.38;92.57
59588;BME280;45412;54.472;18.464;2022-12-07T15:14:31;98472.80;;;0.30;92.83
59588;BME280;45412;54.472;18.464;2022-12-07T15:17:19;98482.09;;;0.27;93.05
59588;BME280;45412;54.472;18.464;2022-12-07T15:20:17;98487.38;;;0.23;93.44
59588;BME280;45412;54.472;18.464;2022-12-07T15:23:06;98485.11;;;0.20;93.78
59588;BME280;45412;54.472;18.464;2022-12-07T15:25:54;98481.01;;;0.19;94.11
59588;BME280;45412;54.472;18.464;2022-12-07T15:28:41;98476.23;;;0.17;94.27
59588;BME280;45412;54.472;18.464;2022-12-07T15:31:29;98477.39;;;0.18;93.97
59588;BME280;45412;54.472;18.464;2022-12-07T15:34:37;98478.08;;;0.18;94.25
59588;BME280;45412;54.472;18.464;2022-12-07T15:37:27;98482.50;;;0.17;94.21
59588;BME280;45412;54.472;18.464;2022-12-07T15:40:15;98481.55;;;0.19;94.25
59588;BME280;45412;54.472;18.464;2022-12-07T15:43:03;98481.27;;;0.20;94.34
59588;BME280;45412;54.472;18.464;2022-12-07T15:45:51;98480.47;;;0.19;94.33
59588;BME280;45412;54.472;18.464;2022-12-07T15:48:39;98479.54;;;0.20;94.21
59588;BME280;45412;54.472;18.464;2022-12-07T15:51:27;98478.05;;;0.21;94.14
59588;BME280;45412;54.472;18.464;2022-12-07T15:54:25;98484.02;;;0.21;94.28
59588;BME280;45412;54.472;18.464;2022-12-07T15:57:14;98484.05;;;0.23;94.38
59588;BME280;45412;54.472;18.464;2022-12-07T16:00:08;98474.97;;;0.26;94.38
59588;BME280;45412;54.472;18.464;2022-12-07T16:02:58;98474.80;;;0.29;94.18
59588;BME280;45412;54.472;18.464;2022-12-07T16:05:51;98476.60;;;0.31;94.37
59588;BME280;45412;54.472;18.464;2022-12-07T16:08:49;98477.29;;;0.31;94.15
59588;BME280;45412;54.472;18.464;2022-12-07T16:11:36;98477.99;;;0.31;94.22
59588;BME280;45412;54.472;18.464;2022-12-07T16:14:25;98476.27;;;0.31;94.21
59588;BME280;45412;54.472;18.464;2022-12-07T16:17:14;98480.17;;;0.32;94.26
59588;BME280;45412;54.472;18.464;2022-12-07T16:20:03;98480.50;;;0.33;94.17
59588;BME280;45412;54.472;18.464;2022-12-07T16:22:52;98477.88;;;0.36;94.29
59588;BME280;45412;54.472;18.464;2022-12-07T16:25:40;98474.50;;;0.34;94.23
59588;BME280;45412;54.472;18.464;2022-12-07T16:28:28;98481.55;;;0.36;94.35
59588;BME280;45412;54.472;18.464;2022-12-07T16:31:22;98481.58;;;0.35;94.30
59588;BME280;45412;54.472;18.464;2022-12-07T16:34:11;98479.10;;;0.36;94.65
59588;BME280;45412;54.472;18.464;2022-12-07T16:36:58;98473.70;;;0.33;94.67
59588;BME280;45412;54.472;18.464;2022-12-07T16:39:52;98468.83;;;0.32;95.01
59588;BME280;45412;54.472;18.464;2022-12-07T16:42:40;98468.55;;;0.31;95.32